createdAt,value
2018-05-14T00:00:18.840Z,80.80
2018-05-14T00:02:46.392Z,80.50
2018-05-14T00:05:13.941Z,81.80
2018-05-14T00:07:41.496Z,81.00
2018-05-14T00:10:09.068Z,80.50
2018-05-14T00:12:36.616Z,81.30
2018-05-14T00:15:04.167Z,81.30
2018-05-14T00:17:31.716Z,82.40
2018-05-14T00:19:59.264Z,82.10
2018-05-14T00:22:26.841Z,81.20
2018-05-14T00:24:54.391Z,82.00
2018-05-14T00:27:21.936Z,82.50
2018-05-14T00:29:49.486Z,82.50
2018-05-14T00:32:17.040Z,81.90
2018-05-14T00:34:45.384Z,83.10
2018-05-14T00:37:12.936Z,82.90
2018-05-14T00:39:40.483Z,82.70
2018-05-14T00:42:08.027Z,82.80
2018-05-14T00:44:35.579Z,84.20
2018-05-14T00:47:03.155Z,83.70
2018-05-14T00:49:30.776Z,83.80
2018-05-14T00:51:58.280Z,84.40
2018-05-14T00:54:25.829Z,83.50
2018-05-14T00:56:53.380Z,84.50
2018-05-14T00:59:20.956Z,84.00
2018-05-14T01:01:48.504Z,83.90
2018-05-14T01:04:16.148Z,83.80
2018-05-14T01:06:43.698Z,84.60
2018-05-14T01:09:11.263Z,84.30
2018-05-14T01:11:38.840Z,85.40
2018-05-14T01:14:06.388Z,85.50
2018-05-14T01:16:33.939Z,85.40
2018-05-14T01:19:01.501Z,86.00
2018-05-14T01:21:29.052Z,85.90
2018-05-14T01:23:56.628Z,86.10
2018-05-14T01:26:24.176Z,86.00
2018-05-14T01:28:51.730Z,85.20
2018-05-14T01:31:19.277Z,86.30
2018-05-14T01:33:46.829Z,85.10
2018-05-14T01:36:14.406Z,85.40
2018-05-14T01:38:41.955Z,85.40
2018-05-14T01:41:09.500Z,85.60
2018-05-14T01:43:37.052Z,85.50
2018-05-14T01:46:04.615Z,86.00
2018-05-14T01:48:32.186Z,86.40
2018-05-14T01:50:59.733Z,87.10
2018-05-14T01:53:27.289Z,86.60
2018-05-14T01:55:54.837Z,87.50
2018-05-14T01:58:22.388Z,86.70
2018-05-14T02:00:49.962Z,86.80
2018-05-14T02:03:17.516Z,88.00
2018-05-14T02:05:45.069Z,87.80
2018-05-14T02:08:12.619Z,87.10
2018-05-14T02:10:40.173Z,87.40
2018-05-14T02:13:08.511Z,87.80
2018-05-14T02:15:36.056Z,87.70
2018-05-14T02:18:03.603Z,87.70
2018-05-14T02:20:31.157Z,87.90
2018-05-14T02:22:58.714Z,88.20
2018-05-14T02:25:26.285Z,88.20
2018-05-14T02:27:53.892Z,88.20
2018-05-14T02:30:22.209Z,88.80
2018-05-14T02:32:49.755Z,88.70
2018-05-14T02:35:17.301Z,88.70
2018-05-14T02:37:44.882Z,89.10
2018-05-14T02:40:12.435Z,88.50
2018-05-14T02:42:39.984Z,89.40
2018-05-14T02:45:07.551Z,88.80
2018-05-14T02:47:35.096Z,88.60
2018-05-14T02:50:02.672Z,89.10
2018-05-14T02:52:30.225Z,89.00
2018-05-14T02:54:57.776Z,89.30
2018-05-14T02:57:25.329Z,89.10
2018-05-14T02:59:52.878Z,88.90
2018-05-14T03:02:20.456Z,88.70
2018-05-14T03:04:48.046Z,88.70
2018-05-14T03:07:15.592Z,89.40
2018-05-14T03:09:43.145Z,89.00
2018-05-14T03:12:11.328Z,88.70
2018-05-14T03:14:38.908Z,89.00
2018-05-14T03:17:06.461Z,88.90
2018-05-14T03:19:34.018Z,89.40
2018-05-14T03:22:01.572Z,88.80
2018-05-14T03:24:29.116Z,88.50
2018-05-14T03:26:56.692Z,89.00
2018-05-14T03:29:24.244Z,89.10
2018-05-14T03:31:51.923Z,88.60
2018-05-14T03:34:19.471Z,88.60
2018-05-14T03:36:47.020Z,89.00
2018-05-14T03:39:14.599Z,89.40
2018-05-14T03:41:42.146Z,88.80
2018-05-14T03:44:09.692Z,89.20
2018-05-14T03:46:37.247Z,88.90
2018-05-14T03:49:04.799Z,88.10
2018-05-14T03:51:32.371Z,87.90
2018-05-14T03:53:59.924Z,88.90
2018-05-14T03:56:27.467Z,88.70
2018-05-14T03:59:06.824Z,88.60
2018-05-14T04:01:46.137Z,89.20
2018-05-14T04:04:25.384Z,89.10
2018-05-14T04:06:52.940Z,88.20
2018-05-14T04:09:20.514Z,88.20
2018-05-14T04:11:49.668Z,87.30
2018-05-14T04:14:17.218Z,87.20
2018-05-14T04:16:44.766Z,87.80
2018-05-14T04:19:12.316Z,87.10
2018-05-14T04:21:39.890Z,86.20
2018-05-14T04:24:07.453Z,85.20
2018-05-14T04:26:35.012Z,85.90
2018-05-14T04:29:02.571Z,84.60
2018-05-14T04:31:30.134Z,81.50
2018-05-14T04:33:57.716Z,83.60
2018-05-14T04:36:25.260Z,81.40
2018-05-14T04:38:52.829Z,80.30
2018-05-14T04:41:20.380Z,81.60
2018-05-14T04:43:47.931Z,80.40
2018-05-14T04:46:15.494Z,82.10
2018-05-14T04:48:43.050Z,83.00
2018-05-14T04:51:10.628Z,82.10
2018-05-14T04:53:38.176Z,82.70
2018-05-14T04:56:05.732Z,82.40
2018-05-14T04:58:33.353Z,82.40
2018-05-14T05:01:00.912Z,80.80
2018-05-14T05:03:28.676Z,80.40
2018-05-14T05:05:56.252Z,81.00
2018-05-14T05:08:23.826Z,82.00
2018-05-14T05:10:51.376Z,80.90
2018-05-14T05:13:19.164Z,79.90
2018-05-14T05:15:46.731Z,79.80
2018-05-14T05:18:14.293Z,79.00
2018-05-14T05:20:41.848Z,78.10
2018-05-14T05:23:09.404Z,77.20
2018-05-14T05:25:36.959Z,77.10
2018-05-14T05:28:04.508Z,78.70
2018-05-14T05:30:32.066Z,78.00
2018-05-14T05:32:59.656Z,76.80
2018-05-14T05:35:27.212Z,77.60
2018-05-14T05:37:55.574Z,76.30
2018-05-14T05:40:23.112Z,76.30
2018-05-14T05:42:50.665Z,73.70
2018-05-14T05:45:18.377Z,75.00
2018-05-14T05:47:45.876Z,72.70
2018-05-14T05:50:13.433Z,72.40
2018-05-14T05:52:40.992Z,71.40
2018-05-14T05:55:08.552Z,71.60
2018-05-14T05:57:36.134Z,71.60
2018-05-14T06:00:04.469Z,68.20
2018-05-14T06:02:32.021Z,68.10
2018-05-14T06:04:59.578Z,67.50
2018-05-14T06:07:27.151Z,67.50
2018-05-14T06:09:54.724Z,63.80
2018-05-14T06:12:22.276Z,66.80
2018-05-14T06:14:49.828Z,65.20
2018-05-14T06:17:17.378Z,60.10
2018-05-14T06:19:44.926Z,55.60
2018-05-14T06:22:12.569Z,51.50
2018-05-14T06:24:40.092Z,54.00
2018-05-14T06:27:07.650Z,50.80
2018-05-14T06:29:35.200Z,47.90
2018-05-14T06:32:03.520Z,44.80
2018-05-14T06:34:31.096Z,44.60
2018-05-14T06:36:58.646Z,47.00
2018-05-14T06:39:26.205Z,43.90
2018-05-14T06:41:53.757Z,43.50
2018-05-14T06:44:21.410Z,42.90
2018-05-14T06:46:48.912Z,44.10
2018-05-14T06:49:16.468Z,41.50
2018-05-14T06:51:44.016Z,40.90
2018-05-14T06:54:11.577Z,41.70
2018-05-14T06:56:39.132Z,39.60
2018-05-14T06:59:06.708Z,38.30
2018-05-14T07:01:34.261Z,39.80
2018-05-14T07:04:01.809Z,37.80
2018-05-14T07:06:29.364Z,35.50
2018-05-14T07:08:56.920Z,37.20
2018-05-14T07:11:24.563Z,38.30
2018-05-14T07:13:52.072Z,35.20
2018-05-14T07:16:19.626Z,38.50
2018-05-14T07:18:47.177Z,39.30
2018-05-14T07:21:14.724Z,36.70
2018-05-14T07:23:42.307Z,36.20
2018-05-14T07:26:10.627Z,37.60
2018-05-14T07:28:38.212Z,37.50
2018-05-14T07:31:05.760Z,35.40
2018-05-14T07:33:33.308Z,34.60
2018-05-14T07:36:00.880Z,35.50
2018-05-14T07:38:28.439Z,36.40
2018-05-14T07:40:55.996Z,37.60
2018-05-14T07:43:23.549Z,36.20
2018-05-14T07:45:51.104Z,37.10
2018-05-14T07:48:18.675Z,37.80
2018-05-14T07:50:46.224Z,35.90
2018-05-14T07:53:13.780Z,37.80
2018-05-14T07:55:41.335Z,36.30
2018-05-14T07:58:08.884Z,35.60
2018-05-14T08:00:36.461Z,37.70
2018-05-14T08:03:04.020Z,35.30
2018-05-14T08:05:31.649Z,35.20
2018-05-14T08:07:59.148Z,34.10
2018-05-14T08:10:26.700Z,37.10
2018-05-14T08:12:54.272Z,34.60
2018-05-14T08:15:21.824Z,35.40
2018-05-14T08:17:49.373Z,35.00
2018-05-14T08:20:16.936Z,37.50
2018-05-14T08:22:44.492Z,39.00
2018-05-14T08:25:12.067Z,33.70
2018-05-14T08:27:39.620Z,34.00
2018-05-14T08:30:07.169Z,33.00
2018-05-14T08:32:34.723Z,36.50
2018-05-14T08:35:03.041Z,33.40
2018-05-14T08:37:30.640Z,33.40
2018-05-14T08:39:58.189Z,31.80
2018-05-14T08:42:25.808Z,32.80
2018-05-14T08:44:53.316Z,31.90
2018-05-14T08:47:20.864Z,36.60
2018-05-14T08:49:48.436Z,35.50
2018-05-14T08:52:15.988Z,33.90
2018-05-14T08:54:43.580Z,32.00
2018-05-14T08:57:11.118Z,33.00
2018-05-14T08:59:38.668Z,33.70
2018-05-14T09:02:06.252Z,30.90
2018-05-14T09:04:33.824Z,32.00
2018-05-14T09:07:02.144Z,34.60
2018-05-14T09:09:29.704Z,34.40
2018-05-14T09:11:57.272Z,31.60
2018-05-14T09:14:24.844Z,30.70
2018-05-14T09:16:52.393Z,31.80
2018-05-14T09:19:20.039Z,32.40
2018-05-14T09:21:47.528Z,31.80
2018-05-14T09:24:15.080Z,29.40
2018-05-14T09:26:42.657Z,31.10
2018-05-14T09:29:10.980Z,31.30
2018-05-14T09:31:38.540Z,31.40
2018-05-14T09:34:06.095Z,30.80
2018-05-14T09:36:33.677Z,33.70
2018-05-14T09:39:01.257Z,31.70
2018-05-14T09:41:28.812Z,28.10
2018-05-14T09:43:56.365Z,30.30
2018-05-14T09:46:23.920Z,29.10
2018-05-14T09:48:51.472Z,30.80
2018-05-14T09:51:19.291Z,31.60
2018-05-14T09:53:46.660Z,28.00
2018-05-14T09:56:14.208Z,30.30
2018-05-14T09:58:41.760Z,28.90
2018-05-14T10:01:09.312Z,32.30
2018-05-14T10:03:36.881Z,27.10
2018-05-14T10:06:04.432Z,29.20
2018-05-14T10:08:31.980Z,28.10
2018-05-14T10:10:59.532Z,28.10
2018-05-14T10:13:27.109Z,27.80
2018-05-14T10:15:54.660Z,28.40
2018-05-14T10:18:22.212Z,26.70
2018-05-14T10:20:49.767Z,27.60
2018-05-14T10:23:17.324Z,26.80
2018-05-14T10:25:45.669Z,27.80
2018-05-14T10:28:13.215Z,27.60
2018-05-14T10:30:40.764Z,27.70
2018-05-14T10:33:08.313Z,27.00
2018-05-14T10:35:35.864Z,26.80
2018-05-14T10:38:03.434Z,27.40
2018-05-14T10:40:30.996Z,24.60
2018-05-14T10:42:58.577Z,27.30
2018-05-14T10:45:26.128Z,27.60
2018-05-14T10:47:53.688Z,26.40
2018-05-14T10:50:21.268Z,26.90
2018-05-14T10:52:48.832Z,27.90
2018-05-14T10:55:16.396Z,26.70
2018-05-14T10:57:44.716Z,27.10
2018-05-14T11:00:12.282Z,26.90
2018-05-14T11:02:39.848Z,27.10
2018-05-14T11:05:07.397Z,25.80
2018-05-14T11:07:34.952Z,24.60
2018-05-14T11:10:02.502Z,27.30
2018-05-14T11:12:30.050Z,30.80
2018-05-14T11:14:57.620Z,26.50
2018-05-14T11:17:25.174Z,27.10
2018-05-14T11:19:52.730Z,26.70
2018-05-14T11:22:20.285Z,28.20
2018-05-14T11:24:47.840Z,29.10
2018-05-14T11:27:15.416Z,29.20
2018-05-14T11:29:42.980Z,27.10
2018-05-14T11:32:10.536Z,28.30
2018-05-14T11:34:38.092Z,27.60
2018-05-14T11:37:05.654Z,28.20
2018-05-14T11:39:33.237Z,27.20
2018-05-14T11:42:00.797Z,27.60
2018-05-14T11:44:29.121Z,29.20
2018-05-14T11:46:56.696Z,29.20
2018-05-14T11:49:24.248Z,30.60
2018-05-14T11:51:51.796Z,29.40
2018-05-14T11:54:19.371Z,30.30
2018-05-14T11:56:46.929Z,27.60
2018-05-14T11:59:14.491Z,29.40
2018-05-14T12:01:42.046Z,29.30
2018-05-14T12:04:09.601Z,28.40
2018-05-14T12:06:37.157Z,27.60
2018-05-14T12:09:04.964Z,27.50
2018-05-14T12:11:33.628Z,28.30
2018-05-14T12:14:01.216Z,28.50
2018-05-14T12:16:28.771Z,29.40
2018-05-14T12:18:56.332Z,29.10
2018-05-14T12:21:24.648Z,29.50
2018-05-14T12:23:52.199Z,29.50
2018-05-14T12:26:19.777Z,30.10
2018-05-14T12:28:47.328Z,28.80
2018-05-14T12:31:14.880Z,28.60
2018-05-14T12:33:42.436Z,29.10
2018-05-14T12:36:09.996Z,27.90
2018-05-14T12:38:37.568Z,28.20
2018-05-14T12:41:05.122Z,28.70
2018-05-14T12:43:32.680Z,30.00
2018-05-14T12:46:00.266Z,28.60
2018-05-14T12:48:27.813Z,27.90
2018-05-14T12:50:55.388Z,29.40
2018-05-14T12:53:23.715Z,29.40
2018-05-14T12:55:51.271Z,29.40
2018-05-14T12:58:18.828Z,29.20
2018-05-14T13:00:46.387Z,29.30
2018-05-14T13:03:13.968Z,27.90
2018-05-14T13:05:41.522Z,27.50
2018-05-14T13:08:09.072Z,29.70
2018-05-14T13:10:36.625Z,28.10
2018-05-14T13:13:04.275Z,28.50
2018-05-14T13:15:31.808Z,28.10
2018-05-14T13:17:59.362Z,29.40
2018-05-14T13:20:26.920Z,28.00
2018-05-14T13:22:54.476Z,28.80
2018-05-14T13:25:22.894Z,29.80
2018-05-14T13:27:50.484Z,29.80
2018-05-14T13:30:18.072Z,29.70
2018-05-14T13:32:46.387Z,30.00
2018-05-14T13:35:13.941Z,30.00
2018-05-14T13:37:41.547Z,29.90
2018-05-14T13:40:09.108Z,28.80
2018-05-14T13:42:37.432Z,30.10
2018-05-14T13:45:04.985Z,30.10
2018-05-14T13:47:32.540Z,29.50
2018-05-14T13:50:00.100Z,29.70
2018-05-14T13:52:27.680Z,29.90
2018-05-14T13:54:56.008Z,30.40
2018-05-14T13:57:23.662Z,30.40
2018-05-14T13:59:51.157Z,31.60
2018-05-14T14:02:18.716Z,30.20
2018-05-14T14:04:46.285Z,30.50
2018-05-14T14:07:13.839Z,30.50
2018-05-14T14:09:41.393Z,31.30
2018-05-14T14:12:08.957Z,31.10
2018-05-14T14:14:36.513Z,30.70
2018-05-14T14:17:04.151Z,30.30
2018-05-14T14:19:31.728Z,30.00
2018-05-14T14:21:59.292Z,30.10
2018-05-14T14:24:26.932Z,30.00
2018-05-14T14:26:54.445Z,30.60
2018-05-14T14:29:22.025Z,30.50
2018-05-14T14:31:50.349Z,30.60
2018-05-14T14:34:17.908Z,30.60
2018-05-14T14:36:45.468Z,32.00
2018-05-14T14:39:13.025Z,30.60
2018-05-14T14:41:40.577Z,34.80
2018-05-14T14:44:08.157Z,35.40
2018-05-14T14:46:35.714Z,35.80
2018-05-14T14:49:03.270Z,35.30
2018-05-14T14:51:30.822Z,37.70
2018-05-14T14:53:59.140Z,37.80
2018-05-14T14:56:26.712Z,37.80
2018-05-14T14:58:54.271Z,37.00
2018-05-14T15:01:21.824Z,36.70
2018-05-14T15:03:49.378Z,37.60
2018-05-14T15:06:16.932Z,38.60
2018-05-14T15:08:44.511Z,37.40
2018-05-14T15:11:12.064Z,37.30
2018-05-14T15:13:39.621Z,37.70
2018-05-14T15:16:07.180Z,38.00
2018-05-14T15:18:34.728Z,38.50
2018-05-14T15:21:02.354Z,37.80
2018-05-14T15:23:29.945Z,38.10
2018-05-14T15:25:57.497Z,38.30
2018-05-14T15:28:25.816Z,38.50
2018-05-14T15:30:53.364Z,38.50
2018-05-14T15:33:20.938Z,39.40
2018-05-14T15:35:48.508Z,38.40
2018-05-14T15:38:16.075Z,38.60
2018-05-14T15:40:43.632Z,39.40
2018-05-14T15:43:11.184Z,38.40
2018-05-14T15:45:38.770Z,38.20
2018-05-14T15:48:06.327Z,38.60
2018-05-14T15:50:34.644Z,38.60
2018-05-14T15:53:02.200Z,38.60
2018-05-14T15:55:29.759Z,38.80
2018-05-14T15:57:57.335Z,38.80
2018-05-14T16:00:24.885Z,38.50
2018-05-14T16:02:52.436Z,38.40
2018-05-14T16:05:19.990Z,38.80
2018-05-14T16:07:47.542Z,37.40
2018-05-14T16:10:15.128Z,36.70
2018-05-14T16:12:42.684Z,37.30
2018-05-14T16:15:11.008Z,38.20
2018-05-14T16:17:38.568Z,38.30
2018-05-14T16:20:06.121Z,39.10
2018-05-14T16:22:34.460Z,38.10
2018-05-14T16:25:02.148Z,38.00
2018-05-14T16:27:29.708Z,37.80
2018-05-14T16:29:58.028Z,38.30
2018-05-14T16:32:25.576Z,38.30
2018-05-14T16:34:53.152Z,38.10
2018-05-14T16:37:20.701Z,38.40
2018-05-14T16:39:48.265Z,38.50
2018-05-14T16:42:15.819Z,39.10
2018-05-14T16:44:43.370Z,38.10
2018-05-14T16:47:10.948Z,39.70
2018-05-14T16:49:38.507Z,39.50
2018-05-14T16:52:06.076Z,38.20
2018-05-14T16:54:33.624Z,39.30
2018-05-14T16:57:01.187Z,38.70
2018-05-14T16:59:28.764Z,40.20
2018-05-14T17:01:56.320Z,41.20
2018-05-14T17:04:24.045Z,41.50
2018-05-14T17:06:51.605Z,41.30
2018-05-14T17:09:19.163Z,41.40
2018-05-14T17:11:46.736Z,41.70
2018-05-14T17:14:14.300Z,41.70
2018-05-14T17:16:41.852Z,42.80
2018-05-14T17:19:09.408Z,43.60
2018-05-14T17:21:36.969Z,44.10
2018-05-14T17:24:04.557Z,44.10
2018-05-14T17:26:32.164Z,44.20
2018-05-14T17:28:59.697Z,44.80
2018-05-14T17:31:27.251Z,44.50
2018-05-14T17:33:54.812Z,45.10
2018-05-14T17:36:22.404Z,44.80
2018-05-14T17:38:49.971Z,44.70
2018-05-14T17:41:17.520Z,44.70
2018-05-14T17:43:45.072Z,44.60
2018-05-14T17:46:12.631Z,45.50
2018-05-14T17:48:40.212Z,45.60
2018-05-14T17:51:08.537Z,45.80
2018-05-14T17:53:36.092Z,46.40
2018-05-14T17:56:04.409Z,46.00
2018-05-14T17:58:31.959Z,46.00
2018-05-14T18:00:59.538Z,46.20
2018-05-14T18:03:27.088Z,47.20
2018-05-14T18:05:54.640Z,48.20
2018-05-14T18:08:22.476Z,47.90
2018-05-14T18:10:50.088Z,49.30
2018-05-14T18:13:17.628Z,48.10
2018-05-14T18:15:45.181Z,47.60
2018-05-14T18:18:12.760Z,47.20
2018-05-14T18:20:40.328Z,47.90
2018-05-14T18:23:07.876Z,49.10
2018-05-14T18:25:41.221Z,48.90
2018-05-14T18:28:08.783Z,49.10
2018-05-14T18:30:39.118Z,48.40
2018-05-14T18:33:11.568Z,48.40
2018-05-14T18:35:43.956Z,48.50
2018-05-14T18:38:11.509Z,49.00
2018-05-14T18:40:39.068Z,49.40
2018-05-14T18:43:06.623Z,49.10
2018-05-14T18:45:34.200Z,49.60
2018-05-14T18:48:01.752Z,50.40
2018-05-14T18:50:29.304Z,50.50
2018-05-14T18:52:56.884Z,51.20
2018-05-14T18:55:24.440Z,51.40
2018-05-14T18:57:51.992Z,52.00
2018-05-14T19:00:19.572Z,52.00
2018-05-14T19:02:47.137Z,52.10
2018-05-14T19:05:14.690Z,52.50
2018-05-14T19:07:42.244Z,52.40
2018-05-14T19:10:15.397Z,53.40
2018-05-14T19:12:42.987Z,53.30
2018-05-14T19:15:16.127Z,54.50
2018-05-14T19:17:49.206Z,53.90
2018-05-14T19:20:16.762Z,54.10
2018-05-14T19:22:50.637Z,54.90
2018-05-14T19:25:18.204Z,55.30
2018-05-14T19:27:51.371Z,55.50
2018-05-14T19:30:18.948Z,56.70
2018-05-14T19:32:46.499Z,56.10
2018-05-14T19:35:19.780Z,56.60
2018-05-14T19:37:47.336Z,56.30
2018-05-14T19:40:20.440Z,56.60
2018-05-14T19:42:47.996Z,56.70
2018-05-14T19:45:15.548Z,57.10
2018-05-14T19:47:43.128Z,58.00
2018-05-14T19:50:10.711Z,57.80
2018-05-14T19:52:38.264Z,58.60
2018-05-14T19:55:06.596Z,60.10
2018-05-14T19:57:34.152Z,60.10
2018-05-14T20:00:01.737Z,60.10
2018-05-14T20:02:29.296Z,60.00
2018-05-14T20:04:56.851Z,61.70
2018-05-14T20:07:24.404Z,61.20
2018-05-14T20:09:51.956Z,61.10
2018-05-14T20:12:19.536Z,60.30
2018-05-14T20:14:47.093Z,61.40
2018-05-14T20:17:15.008Z,62.10
2018-05-14T20:19:42.925Z,62.30
2018-05-14T20:22:10.517Z,63.20
2018-05-14T20:24:38.097Z,62.80
2018-05-14T20:27:06.440Z,63.40
2018-05-14T20:29:33.993Z,63.40
2018-05-14T20:32:02.312Z,63.30
2018-05-14T20:34:29.864Z,63.30
2018-05-14T20:36:57.633Z,64.10
2018-05-14T20:39:25.220Z,64.10
2018-05-14T20:41:52.807Z,64.60
2018-05-14T20:44:21.128Z,64.60
2018-05-14T20:46:48.684Z,64.60
2018-05-14T20:49:16.276Z,64.90
2018-05-14T20:51:43.827Z,64.50
2018-05-14T20:54:11.384Z,65.10
2018-05-14T20:56:38.946Z,65.70
2018-05-14T20:59:06.500Z,65.90
2018-05-14T21:01:34.076Z,65.30
2018-05-14T21:04:01.660Z,65.10
2018-05-14T21:06:29.214Z,65.60
2018-05-14T21:08:56.790Z,67.20
2018-05-14T21:11:24.348Z,67.10
2018-05-14T21:13:51.928Z,67.40
2018-05-14T21:16:19.480Z,68.10
2018-05-14T21:18:47.042Z,67.90
2018-05-14T21:21:14.595Z,68.30
2018-05-14T21:23:42.162Z,68.00
2018-05-14T21:26:09.736Z,68.90
2018-05-14T21:28:37.295Z,69.30
2018-05-14T21:31:04.844Z,68.80
2018-05-14T21:33:32.403Z,69.30
2018-05-14T21:35:59.956Z,70.10
2018-05-14T21:38:27.537Z,70.80
2018-05-14T21:40:55.098Z,69.40
2018-05-14T21:43:22.672Z,70.20
2018-05-14T21:45:50.228Z,69.70
2018-05-14T21:48:17.784Z,70.80
2018-05-14T21:50:45.357Z,70.10
2018-05-14T21:53:12.911Z,69.80
2018-05-14T21:55:40.465Z,70.50
2018-05-14T21:58:08.026Z,72.10
2018-05-14T22:00:35.584Z,72.10
2018-05-14T22:03:03.182Z,72.50
2018-05-14T22:05:30.758Z,72.50
2018-05-14T22:07:58.334Z,72.80
2018-05-14T22:10:25.903Z,73.60
2018-05-14T22:12:54.234Z,73.70
2018-05-14T22:15:21.830Z,73.60
2018-05-14T22:17:49.396Z,73.90
2018-05-14T22:20:16.970Z,74.40
2018-05-14T22:22:44.538Z,74.30
2018-05-14T22:25:12.116Z,73.60
2018-05-14T22:27:39.720Z,73.60
2018-05-14T22:30:07.290Z,73.90
2018-05-14T22:32:34.858Z,75.00
2018-05-14T22:35:02.442Z,74.50
2018-05-14T22:37:30.020Z,75.30
2018-05-14T22:39:57.634Z,75.30
2018-05-14T22:42:25.203Z,77.20
2018-05-14T22:44:52.772Z,76.10
2018-05-14T22:47:20.350Z,76.10
2018-05-14T22:49:47.923Z,76.70
2018-05-14T22:52:15.530Z,75.60
2018-05-14T22:54:43.098Z,77.00
2018-05-14T22:57:10.667Z,76.20
2018-05-14T22:59:38.243Z,78.30
2018-05-14T23:02:05.815Z,79.40
2018-05-14T23:04:33.416Z,80.40
2018-05-14T23:07:00.990Z,78.40
2018-05-14T23:09:28.556Z,78.50
2018-05-14T23:11:56.127Z,80.20
2018-05-14T23:14:23.700Z,78.60
2018-05-14T23:16:51.299Z,78.50
2018-05-14T23:19:18.876Z,78.80
2018-05-14T23:21:46.448Z,78.90
2018-05-14T23:24:14.014Z,80.00
2018-05-14T23:26:41.585Z,78.60
2018-05-14T23:29:09.170Z,77.00
2018-05-14T23:31:36.738Z,78.50
2018-05-14T23:34:04.312Z,79.50
2018-05-14T23:36:32.643Z,79.90
2018-05-14T23:39:00.214Z,79.80
2018-05-14T23:41:27.798Z,79.10
2018-05-14T23:43:55.372Z,79.30
2018-05-14T23:46:22.943Z,79.30
2018-05-14T23:48:50.512Z,79.00
2018-05-14T23:51:18.094Z,79.80
2018-05-14T23:53:45.732Z,79.60
2018-05-14T23:56:13.299Z,78.70
2018-05-14T23:58:40.863Z,79.00
